Time;durP1;ratioP1;P1;durP2;ratioP2;P2;SDS_P1;SDS_P2;PMS_P1;PMS_P2;Temp;Humidity;BMP_temperature;BMP_pressure;BME280_temperature;BME280_humidity;BME280_pressure;Samples;Min_cycle;Max_cycle;Signal;HPM_P1;HPM_P2
2022/06/17 00:01:56;;;;;;;8.63;7.75;;;;;;;27.01;61.24;101180.34;5094110;28;20051;-79
2022/06/17 00:04:23;;;;;;;8.30;7.50;;;;;;;27.00;61.18;101173.22;5097721;28;20048;-79
2022/06/17 00:07:04;;;;;;;8.18;7.40;;;;;;;27.01;60.83;101163.19;5097250;28;20047;-79
2022/06/17 00:09:34;;;;;;;9.95;7.95;;;;;;;27.00;61.22;101156.91;5097232;28;20041;-80
2022/06/17 00:12:04;;;;;;;8.48;7.68;;;;;;;27.01;61.36;101158.59;5096605;28;20491;-79
2022/06/17 00:15:11;;;;;;;7.85;7.03;;;;;;;27.01;60.89;101161.31;5096463;28;20092;-79
2022/06/17 00:17:22;;;;;;;8.02;7.32;;;;;;;27.01;60.95;101161.31;5095291;28;20130;-79
2022/06/17 00:19:50;;;;;;;8.27;7.57;;;;;;;27.01;60.91;101169.47;5096837;28;20040;-79
2022/06/17 00:22:17;;;;;;;8.13;7.32;;;;;;;27.02;60.84;101170.31;5081305;28;20479;-78
2022/06/17 00:24:44;;;;;;;7.97;7.28;;;;;;;27.02;61.33;101168.47;5074275;28;20055;-78
2022/06/17 00:27:12;;;;;;;8.38;7.60;;;;;;;27.02;61.13;101167.59;5076145;28;20045;-78
2022/06/17 00:29:40;;;;;;;7.53;6.90;;;;;;;27.01;61.24;101163.19;5075144;28;20049;-78
2022/06/17 00:32:08;;;;;;;8.82;8.02;;;;;;;27.01;60.97;101155.03;5074867;28;20060;-78
2022/06/17 00:34:36;;;;;;;7.97;7.28;;;;;;;27.02;61.23;101159.44;5074112;28;20048;-78
2022/06/17 00:37:06;;;;;;;8.77;7.90;;;;;;;27.02;61.43;101154.00;5076258;28;20468;-79
2022/06/17 00:39:35;;;;;;;8.02;7.32;;;;;;;27.01;61.17;101164.03;5074549;28;20408;-79
2022/06/17 00:42:08;;;;;;;7.90;7.05;;;;;;;27.02;61.20;101173.03;5075818;28;20044;-80
2022/06/17 00:44:36;;;;;;;8.60;7.63;;;;;;;27.03;61.16;101172.03;5074499;28;20048;-79
2022/06/17 00:47:06;;;;;;;8.32;7.63;;;;;;;27.02;61.03;101182.06;5074433;28;20427;-79
2022/06/17 00:49:43;;;;;;;8.20;7.53;;;;;;;27.03;61.13;101180.19;5074567;28;20048;-79
2022/06/17 00:52:21;;;;;;;8.18;7.40;;;;;;;27.02;61.32;101182.06;5078741;28;20388;-79
2022/06/17 00:54:55;;;;;;;8.82;7.80;;;;;;;27.03;61.03;101182.91;5088355;28;20055;-79
2022/06/17 00:57:35;;;;;;;7.70;7.07;;;;;;;27.03;61.13;101181.03;5092779;28;20056;-78
2022/06/17 01:00:18;;;;;;;7.70;7.07;;;;;;;27.03;60.81;101194.59;5074169;28;20048;-78
2022/06/17 01:02:51;;;;;;;8.50;7.68;;;;;;;27.02;60.79;101189.31;5074544;28;20052;-78
2022/06/17 01:05:23;;;;;;;10.70;7.63;;;;;;;27.03;61.06;101191.03;5075726;28;20044;-78
2022/06/17 01:07:57;;;;;;;7.88;7.10;;;;;;;27.03;60.95;101177.47;5074123;28;20480;-78
2022/06/17 01:10:26;;;;;;;7.45;6.68;;;;;;;27.02;60.98;101173.91;5073889;28;20047;-78
2022/06/17 01:13:01;;;;;;;8.02;7.38;;;;;;;27.03;60.65;101181.03;5073382;28;20052;-78
2022/06/17 01:15:34;;;;;;;7.50;6.80;;;;;;;27.03;60.78;101185.63;5073884;28;20499;-77
2022/06/17 01:18:04;;;;;;;6.90;6.28;;;;;;;27.02;61.16;101176.63;5073553;28;20057;-78
2022/06/17 01:20:34;;;;;;;7.57;6.82;;;;;;;27.02;61.03;101182.06;5073509;28;20492;-78
2022/06/17 01:23:12;;;;;;;14.88;6.70;;;;;;;27.01;60.81;101174.91;5073379;28;20059;-78
2022/06/17 01:25:44;;;;;;;7.05;6.35;;;;;;;27.02;60.88;101182.06;5056943;28;20063;-79
2022/06/17 01:28:17;;;;;;;7.93;7.10;;;;;;;27.02;60.74;101173.91;5073592;28;20053;-78
2022/06/17 01:30:47;;;;;;;7.90;6.70;;;;;;;27.01;60.89;101174.91;5073534;28;20048;-79
2022/06/17 01:33:36;;;;;;;8.55;6.88;;;;;;;27.03;60.92;101178.31;5075291;28;20048;-79
2022/06/17 01:36:27;;;;;;;7.28;6.57;;;;;;;27.04;60.93;101184.59;5074812;28;20043;-79
2022/06/17 01:38:58;;;;;;;7.20;6.60;;;;;;;27.03;60.83;101177.47;5072677;28;20052;-78
2022/06/17 01:41:32;;;;;;;7.78;7.07;;;;;;;27.03;60.95;101183.75;5074450;28;20040;-78
2022/06/17 01:44:10;;;;;;;6.97;6.28;;;;;;;27.03;60.78;101191.03;5073630;28;20063;-78
2022/06/17 01:46:40;;;;;;;6.90;6.25;;;;;;;27.03;60.62;101193.75;5073154;28;20056;-77
2022/06/17 01:49:16;;;;;;;7.85;7.05;;;;;;;27.03;61.06;101194.59;5072867;28;20044;-78
2022/06/17 01:51:51;;;;;;;6.95;6.35;;;;;;;27.02;60.90;101195.63;5073075;28;20053;-79
2022/06/17 01:54:27;;;;;;;8.13;6.22;;;;;;;27.03;60.80;101196.47;5080675;28;20055;-79
2022/06/17 01:56:59;;;;;;;6.57;5.97;;;;;;;27.02;60.66;101183.88;5088428;28;20048;-79
2022/06/17 01:59:45;;;;;;;6.70;6.10;;;;;;;27.02;60.62;101179.34;5093670;28;20048;-78
2022/06/17 02:02:15;;;;;;;6.28;5.78;;;;;;;27.02;60.79;101179.34;5093597;28;20407;-78
2022/06/17 02:04:48;;;;;;;9.65;6.75;;;;;;;27.03;60.83;101180.19;5092897;28;20086;-78
2022/06/17 02:07:46;;;;;;;7.70;6.90;;;;;;;27.01;60.64;101169.47;5092490;28;20048;-78
2022/06/17 02:10:15;;;;;;;6.93;5.72;;;;;;;27.02;60.77;101168.47;5093155;28;20048;-79
2022/06/17 02:12:44;;;;;;;8.15;6.40;;;;;;;27.01;60.66;101169.47;5076782;28;20048;-79
2022/06/17 02:15:12;;;;;;;6.28;5.68;;;;;;;27.02;60.88;101184.75;5092434;28;20052;-79
2022/06/17 02:18:01;;;;;;;7.00;6.00;;;;;;;27.02;60.86;101181.19;5094086;28;20040;-79
2022/06/17 02:20:49;;;;;;;6.63;6.10;;;;;;;27.02;60.62;101187.47;5093538;28;20403;-79
2022/06/17 02:23:16;;;;;;;6.63;5.50;;;;;;;27.02;60.97;101176.63;5075667;28;20055;-79
2022/06/17 02:25:48;;;;;;;6.78;5.97;;;;;;;27.02;61.08;101184.75;5071872;28;20357;-82
2022/06/17 02:28:16;;;;;;;10.82;5.93;;;;;;;27.03;61.37;101194.59;5072537;28;20056;-80
2022/06/17 02:30:48;;;;;;;6.88;6.20;;;;;;;27.02;60.67;101203.78;5072003;28;20441;-79
2022/06/17 02:33:17;;;;;;;6.93;6.22;;;;;;;27.00;60.67;101200.38;5071843;28;20051;-80
2022/06/17 02:35:56;;;;;;;7.20;6.57;;;;;;;26.97;60.55;101197.16;5073364;28;20510;-80
2022/06/17 02:38:27;;;;;;;7.15;6.22;;;;;;;26.95;60.66;101208.22;5073745;28;20737;-80
2022/06/17 02:41:01;;;;;;;6.90;6.28;;;;;;;26.92;60.81;101210.44;5105803;28;20049;-80
2022/06/17 02:43:31;;;;;;;8.77;6.78;;;;;;;26.87;60.79;101205.50;5105735;28;20056;-79
2022/06/17 02:46:04;;;;;;;6.60;6.03;;;;;;;26.85;60.79;101204.81;5089137;28;20488;-79
2022/06/17 02:48:45;;;;;;;6.63;5.38;;;;;;;26.85;60.79;101199.38;5072741;28;20049;-79
2022/06/17 02:51:13;;;;;;;7.70;5.85;;;;;;;26.83;60.91;101196.84;5072058;28;20044;-79
2022/06/17 02:53:42;;;;;;;6.68;6.07;;;;;;;26.82;60.73;101200.59;5072553;28;20048;-79
2022/06/17 02:56:28;;;;;;;7.43;5.72;;;;;;;26.82;61.06;101194.31;5082238;28;20052;-79
2022/06/17 02:59:18;;;;;;;6.13;5.63;;;;;;;26.81;60.91;101200.75;5079609;28;20048;-79
2022/06/17 03:01:51;;;;;;;6.47;5.73;;;;;;;26.80;61.19;101194.47;5071832;28;20049;-79
2022/06/17 03:04:42;;;;;;;5.35;4.80;;;;;;;26.81;60.90;101195.31;5071578;28;20063;-79
2022/06/17 03:07:19;;;;;;;8.05;5.28;;;;;;;26.81;61.00;101196.16;5071704;28;20510;-79
2022/06/17 03:09:51;;;;;;;6.07;4.88;;;;;;;26.81;60.99;101192.59;5055989;28;20045;-79
2022/06/17 03:12:28;;;;;;;5.65;5.07;;;;;;;26.82;60.58;101202.47;5071508;28;20503;-79
2022/06/17 03:15:00;;;;;;;7.72;6.63;;;;;;;26.82;60.67;101199.75;5071936;28;20058;-79
2022/06/17 03:17:30;;;;;;;6.05;5.45;;;;;;;26.79;60.66;101202.81;5072202;28;20412;-80
2022/06/17 03:20:01;;;;;;;7.97;5.68;;;;;;;26.79;60.86;101211.81;5072813;28;20047;-79
2022/06/17 03:22:30;;;;;;;6.10;5.50;;;;;;;26.76;60.66;101219.44;5072965;28;20040;-79
2022/06/17 03:25:07;;;;;;;6.47;5.88;;;;;;;26.73;60.67;101214.34;5071958;28;20052;-79
2022/06/17 03:27:38;;;;;;;7.57;6.93;;;;;;;26.67;60.54;101217.75;5071685;28;20063;-79
2022/06/17 03:30:09;;;;;;;6.50;5.90;;;;;;;26.62;60.66;101213.69;5071428;28;20052;-79
2022/06/17 03:32:42;;;;;;;7.45;6.40;;;;;;;26.60;60.69;101217.59;5072857;28;20036;-79
2022/06/17 03:35:16;;;;;;;;;;;;;;;26.54;61.11;101223.72;5071077;28;20052;-79
2022/06/17 03:37:59;;;;;;;7.95;5.97;;;;;;;26.51;61.21;101224.06;5071229;28;19924;-79
2022/06/17 03:40:39;;;;;;;7.05;6.43;;;;;;;26.48;61.63;101217.09;5072853;28;20052;-79
2022/06/17 03:43:15;;;;;;;8.02;6.22;;;;;;;26.48;61.28;101221.66;5071653;28;20052;-78
2022/06/17 03:45:58;;;;;;;7.82;7.20;;;;;;;26.46;61.35;101223.72;5071588;28;20044;-79
2022/06/17 03:48:39;;;;;;;8.65;6.53;;;;;;;26.41;61.41;101226.88;5071025;28;20060;-78
2022/06/17 03:51:14;;;;;;;8.82;7.45;;;;;;;26.41;61.37;101239.59;5071739;28;20051;-79
2022/06/17 03:53:44;;;;;;;9.10;6.90;;;;;;;26.34;61.56;101243.00;5071713;28;20064;-79
2022/06/17 03:56:18;;;;;;;7.70;6.45;;;;;;;26.33;61.54;101245.88;5074468;28;20107;-79
2022/06/17 03:58:46;;;;;;;7.50;6.80;;;;;;;26.32;61.56;101247.75;5090645;28;20055;-79
2022/06/17 04:01:31;;;;;;;7.72;6.90;;;;;;;26.33;61.49;101245.88;5091558;28;20399;-79
2022/06/17 04:04:17;;;;;;;7.65;6.93;;;;;;;26.31;61.29;101253.34;5091525;28;20056;-79
2022/06/17 04:06:48;;;;;;;7.80;7.05;;;;;;;26.27;61.15;101252.00;5091786;28;20056;-78
2022/06/17 04:09:26;;;;;;;7.22;6.53;;;;;;;26.23;61.59;101261.50;5091185;28;20051;-79
2022/06/17 04:12:04;;;;;;;8.57;6.95;;;;;;;26.20;61.50;101265.38;5074761;28;20055;-79
2022/06/17 04:15:07;;;;;;;7.63;6.70;;;;;;;26.20;61.25;101267.25;5075718;28;20052;-79
2022/06/17 04:17:43;;;;;;;7.97;7.18;;;;;;;26.18;61.23;101270.13;5091790;28;20491;-79
2022/06/17 04:20:39;;;;;;;7.40;6.63;;;;;;;26.14;61.55;101272.31;5090752;28;20059;-79
2022/06/17 04:23:28;;;;;;;6.53;5.88;;;;;;;26.14;61.51;101271.47;5080053;28;20055;-79
2022/06/17 04:26:21;;;;;;;7.85;7.05;;;;;;;26.13;61.54;101267.94;5070690;28;20049;-79
2022/06/17 04:28:59;;;;;;;7.85;7.10;;;;;;;26.16;61.95;101290.31;5072478;28;20040;-79
2022/06/17 04:31:32;;;;;;;8.82;6.43;;;;;;;26.14;61.64;101279.63;5070222;28;20048;-79
2022/06/17 04:34:13;;;;;;;6.97;6.28;;;;;;;26.14;61.82;101287.75;5104232;28;20052;-79
2022/06/17 04:36:55;;;;;;;6.80;6.10;;;;;;;26.14;61.97;101288.59;5070367;28;20067;-78
2022/06/17 04:39:39;;;;;;;6.80;6.10;;;;;;;26.14;62.00;101290.47;5086544;28;20056;-79
2022/06/17 04:42:41;;;;;;;6.68;5.95;;;;;;;26.16;61.90;101287.59;5103988;28;20056;-79
2022/06/17 04:45:31;;;;;;;7.43;6.18;;;;;;;26.17;61.95;101281.13;5072285;28;20048;-79
2022/06/17 04:48:03;;;;;;;8.88;6.13;;;;;;;26.19;61.84;101284.53;5072829;28;20052;-79
2022/06/17 04:50:31;;;;;;;6.28;5.60;;;;;;;26.20;61.89;101287.09;5074545;28;20056;-79
2022/06/17 04:52:59;;;;;;;6.80;5.47;;;;;;;26.24;61.89;101290.31;5074156;28;20051;-79
2022/06/17 04:55:55;;;;;;;8.00;6.40;;;;;;;26.27;61.88;101295.41;5073675;28;20155;-79
2022/06/17 04:58:38;;;;;;;7.00;6.38;;;;;;;26.28;62.08;101294.41;5058565;28;20055;-79
2022/06/17 05:01:18;;;;;;;6.80;6.03;;;;;;;26.28;62.10;101297.13;5036856;28;20417;-79
2022/06/17 05:03:53;;;;;;;7.22;6.55;;;;;;;26.29;61.90;101293.38;5036369;28;20509;-79
2022/06/17 05:06:33;;;;;;;6.80;6.13;;;;;;;26.30;62.37;101295.09;5038135;28;20057;-79
2022/06/17 05:09:10;;;;;;;7.15;6.20;;;;;;;26.30;62.35;101295.09;5036498;28;20053;-78
2022/06/17 05:11:43;;;;;;;7.22;6.28;;;;;;;26.30;62.38;101295.09;5020148;28;20052;-78
2022/06/17 05:14:37;;;;;;;7.10;6.10;;;;;;;26.30;62.81;101289.66;5036329;28;20060;-78
2022/06/17 05:17:05;;;;;;;7.95;6.30;;;;;;;26.29;62.56;101287.94;5035978;28;20057;-78
2022/06/17 05:19:33;;;;;;;6.00;5.40;;;;;;;26.30;62.74;101286.94;5036521;28;20052;-78
2022/06/17 05:22:03;;;;;;;7.68;5.88;;;;;;;26.29;62.65;101288.81;5052708;28;20041;-78
2022/06/17 05:24:31;;;;;;;7.63;6.18;;;;;;;26.31;62.51;101294.06;5035883;28;20053;-78
2022/06/17 05:26:59;;;;;;;8.32;5.82;;;;;;;26.32;62.25;101295.75;5036401;28;20068;-79
2022/06/17 05:29:28;;;;;;;6.93;6.20;;;;;;;26.34;62.12;101291.03;5035979;28;20532;-79
2022/06/17 05:32:02;;;;;;;6.65;6.05;;;;;;;26.34;62.41;101296.47;5052645;28;20060;-79
2022/06/17 05:34:37;;;;;;;6.90;6.20;;;;;;;26.35;62.52;101295.44;5053037;28;20053;-79
2022/06/17 05:37:06;;;;;;;7.85;5.80;;;;;;;26.38;62.31;101300.53;5053883;28;20496;-78
2022/06/17 05:39:36;;;;;;;6.53;5.35;;;;;;;26.40;62.25;101301.19;5052819;28;20072;-79
2022/06/17 05:42:05;;;;;;;7.80;5.78;;;;;;;26.42;62.45;101309.19;5052724;28;20045;-79
2022/06/17 05:44:33;;;;;;;6.65;5.97;;;;;;;26.42;62.44;101312.75;5053185;28;20045;-79
2022/06/17 05:47:18;;;;;;;6.40;5.82;;;;;;;26.43;62.49;101317.16;5053587;28;20059;-79
2022/06/17 05:50:06;;;;;;;12.77;6.88;;;;;;;26.43;62.74;101309.03;5054084;28;20064;-79
2022/06/17 05:52:55;;;;;;;8.38;6.88;;;;;;;26.42;62.92;101320.06;5052829;28;20053;-79
2022/06/17 05:55:44;;;;;;;6.47;5.88;;;;;;;26.44;62.61;101324.28;5053080;28;20049;-79
2022/06/17 05:58:12;;;;;;;8.90;8.10;;;;;;;26.44;62.89;101327.00;5052768;28;20067;-79
2022/06/17 06:00:40;;;;;;;9.05;8.15;;;;;;;26.43;63.24;101329.91;5089991;28;20044;-79
2022/06/17 06:03:15;;;;;;;10.93;8.95;;;;;;;26.40;63.64;101320.22;5092551;28;20048;-79
2022/06/17 06:05:44;;;;;;;9.85;8.93;;;;;;;26.36;63.95;101316.13;5093555;28;20052;-79
2022/06/17 06:08:15;;;;;;;9.40;8.50;;;;;;;26.31;63.94;101322.06;5093310;28;20061;-79
2022/06/17 06:10:46;;;;;;;9.30;8.15;;;;;;;26.32;64.01;101317.47;5093157;28;20522;-79
2022/06/17 06:13:17;;;;;;;8.23;6.93;;;;;;;26.33;63.77;101311.03;5092634;28;20052;-79
2022/06/17 06:15:49;;;;;;;7.97;6.53;;;;;;;26.35;63.77;101314.44;5092757;28;20078;-78
2022/06/17 06:18:33;;;;;;;8.02;6.65;;;;;;;26.36;63.80;101321.56;5093007;28;20059;-79
2022/06/17 06:21:04;;;;;;;7.15;6.50;;;;;;;26.37;63.40;101318.69;5092998;28;20048;-79
2022/06/17 06:23:36;;;;;;;7.60;6.88;;;;;;;26.40;63.68;101320.22;5082231;28;20515;-78
2022/06/17 06:26:05;;;;;;;9.45;8.52;;;;;;;26.42;63.62;101312.75;5072184;28;20093;-78
2022/06/17 06:28:32;;;;;;;9.88;9.07;;;;;;;26.42;63.82;101315.47;5071900;28;20063;-79
2022/06/17 06:31:18;;;;;;;9.60;8.60;;;;;;;26.43;63.88;101316.31;5072378;28;20048;-78
2022/06/17 06:33:45;;;;;;;11.65;7.07;;;;;;;26.44;63.75;101316.13;5072256;28;20051;-78
2022/06/17 06:36:13;;;;;;;10.63;9.13;;;;;;;26.45;63.75;101319.75;5071704;28;20419;-78
2022/06/17 06:38:41;;;;;;;11.55;10.43;;;;;;;26.43;64.01;101321.75;5072050;28;20415;-79
2022/06/17 06:41:09;;;;;;;10.50;9.40;;;;;;;26.41;63.88;101313.75;5072602;28;20055;-77
2022/06/17 06:43:36;;;;;;;10.07;8.35;;;;;;;26.43;64.32;101321.75;5071070;28;20111;-78
2022/06/17 06:46:11;;;;;;;10.02;8.85;;;;;;;26.44;63.93;101324.28;5079929;28;20055;-78
2022/06/17 06:48:47;;;;;;;10.80;7.90;;;;;;;26.46;64.20;101319.59;5054396;28;20053;-78
2022/06/17 06:51:14;;;;;;;10.82;9.75;;;;;;;26.48;64.40;101324.84;5052775;28;20499;-77
2022/06/17 06:53:42;;;;;;;11.77;10.57;;;;;;;26.48;64.51;101331.13;5052124;28;20052;-77
2022/06/17 06:56:09;;;;;;;9.90;8.88;;;;;;;26.49;64.24;101332.81;5051726;28;20048;-77
2022/06/17 06:58:38;;;;;;;14.70;13.30;;;;;;;26.49;64.84;101334.69;5051644;28;20052;-77
2022/06/17 07:01:06;;;;;;;16.77;14.43;;;;;;;26.46;64.70;101338.59;5051845;28;20381;-77
2022/06/17 07:03:34;;;;;;;14.73;13.43;;;;;;;26.41;64.83;101343.63;5053005;28;20514;-77
2022/06/17 07:06:04;;;;;;;12.60;10.05;;;;;;;26.41;64.96;101350.91;5051555;28;20053;-77
2022/06/17 07:08:34;;;;;;;18.65;14.15;;;;;;;26.40;65.06;101355.50;5053060;28;20056;-77
2022/06/17 07:11:05;;;;;;;16.40;13.38;;;;;;;26.38;65.09;101362.97;5053357;28;20040;-77
2022/06/17 07:13:36;;;;;;;13.07;11.77;;;;;;;26.38;65.24;101360.25;5053452;28;20040;-77
2022/06/17 07:16:06;;;;;;;16.88;11.75;;;;;;;26.38;65.36;101357.56;5053549;28;20047;-77
2022/06/17 07:18:37;;;;;;;13.70;12.32;;;;;;;26.39;65.82;101359.25;5053408;28;20045;-77
2022/06/17 07:21:09;;;;;;;15.48;13.98;;;;;;;26.38;65.91;101352.97;5053379;28;20049;-77
2022/06/17 07:23:40;;;;;;;15.18;13.63;;;;;;;26.38;66.09;101355.69;5053773;28;20049;-78
2022/06/17 07:26:19;;;;;;;14.40;12.90;;;;;;;26.38;65.30;101350.25;5066152;28;20048;-80
2022/06/17 07:28:49;;;;;;;13.82;12.43;;;;;;;26.38;65.07;101357.56;5073084;28;20496;-79
2022/06/17 07:31:17;;;;;;;11.82;10.60;;;;;;;26.39;65.21;101348.38;5073040;28;20139;-78
2022/06/17 07:33:45;;;;;;;11.43;10.30;;;;;;;26.40;64.98;101339.22;5073134;28;20044;-78
2022/06/17 07:41:52;;;;;;;10.10;8.18;;;;;;;26.49;64.39;101335.53;5072890;28;20059;-77
2022/06/17 07:44:20;;;;;;;10.70;9.00;;;;;;;26.52;64.36;101328.91;5104872;28;20067;-77
2022/06/17 07:46:48;;;;;;;10.77;9.35;;;;;;;26.53;63.81;101322.47;5072474;28;20052;-77
2022/06/17 07:49:16;;;;;;;10.45;8.32;;;;;;;26.55;63.90;101329.44;5071469;28;20052;-78
2022/06/17 07:51:44;;;;;;;12.60;10.40;;;;;;;26.58;64.37;101329.09;5072643;28;20057;-78
2022/06/17 07:54:11;;;;;;;9.73;8.73;;;;;;;26.59;64.45;101335.38;5072836;28;20044;-78
2022/06/17 07:56:38;;;;;;;13.50;11.13;;;;;;;26.59;64.49;101328.09;5072714;28;20503;-80
2022/06/17 07:59:06;;;;;;;11.15;10.15;;;;;;;26.60;64.70;101335.22;5073255;28;20049;-79
2022/06/17 08:01:33;;;;;;;11.55;10.30;;;;;;;26.60;64.70;101324.34;5071427;28;20048;-79
2022/06/17 08:04:00;;;;;;;9.93;8.52;;;;;;;26.62;64.65;101327.75;5072757;28;20377;-79
2022/06/17 08:06:28;;;;;;;12.13;8.90;;;;;;;26.66;64.19;101328.28;5072896;28;20056;-79
2022/06/17 08:08:56;;;;;;;9.57;8.45;;;;;;;26.69;64.14;101325.19;5072989;28;20048;-78
2022/06/17 08:11:24;;;;;;;11.52;10.20;;;;;;;26.69;63.79;101327.06;5072865;28;20040;-78
2022/06/17 08:13:51;;;;;;;10.60;9.65;;;;;;;26.69;62.99;101324.34;5073009;28;20037;-79
2022/06/17 08:16:18;;;;;;;11.35;9.52;;;;;;;26.69;63.25;101319.75;5088507;28;20380;-79
2022/06/17 08:18:46;;;;;;;10.88;9.70;;;;;;;26.71;63.47;101333.19;5088163;28;20053;-79
2022/06/17 08:21:13;;;;;;;9.85;8.95;;;;;;;26.73;63.23;101333.84;5073139;28;20399;-79
2022/06/17 08:23:41;;;;;;;9.07;8.20;;;;;;;26.76;62.90;101338.97;5075663;28;20052;-79
2022/06/17 08:26:09;;;;;;;10.20;8.77;;;;;;;26.78;63.09;101336.91;5076439;28;20048;-79
2022/06/17 08:28:38;;;;;;;11.32;7.68;;;;;;;26.81;62.95;101339.28;5076160;28;20488;-79
2022/06/17 08:31:05;;;;;;;9.05;8.13;;;;;;;26.82;62.95;101333.72;5076195;28;20044;-79
2022/06/17 08:33:33;;;;;;;9.88;8.40;;;;;;;26.83;62.92;101329.13;5076120;28;20045;-79
2022/06/17 08:36:16;;;;;;;9.05;7.93;;;;;;;26.84;63.01;101342.53;5090515;28;20044;-78
2022/06/17 08:38:50;;;;;;;9.55;8.55;;;;;;;26.85;62.87;101337.94;5075894;28;20059;-79
2022/06/17 08:41:27;;;;;;;9.77;7.47;;;;;;;26.87;62.81;101339.47;5076622;28;20380;-79
2022/06/17 08:44:16;;;;;;;10.30;9.15;;;;;;;26.91;61.65;101340.00;5075940;28;20041;-78
2022/06/17 08:47:01;;;;;;;9.50;8.70;;;;;;;26.93;62.19;101356.97;5076121;28;20049;-79
2022/06/17 08:50:13;;;;;;;9.80;8.18;;;;;;;26.94;61.85;101346.94;5091744;28;20044;-79
2022/06/17 08:53:11;;;;;;;9.88;8.98;;;;;;;26.99;60.52;101347.31;5075831;28;20396;-79
2022/06/17 08:56:25;;;;;;;9.57;8.75;;;;;;;27.01;60.26;101348.81;5076347;28;20044;-78
2022/06/17 08:59:08;;;;;;;9.60;8.20;;;;;;;27.02;60.35;101347.81;5075380;28;20056;-78
2022/06/17 09:01:57;;;;;;;8.48;7.72;;;;;;;27.04;60.01;101350.34;5075880;28;20044;-79
2022/06/17 09:04:27;;;;;;;10.57;8.55;;;;;;;27.04;58.57;101358.50;5075421;28;20037;-78
2022/06/17 09:07:24;;;;;;;10.75;9.60;;;;;;;27.09;57.21;101347.97;5090832;28;20048;-78
2022/06/17 09:09:54;;;;;;;9.20;8.40;;;;;;;27.16;57.80;101350.88;5075025;28;20052;-78
2022/06/17 09:12:41;;;;;;;10.27;8.40;;;;;;;27.15;58.18;101347.31;5075501;28;20052;-78
2022/06/17 09:15:28;;;;;;;12.73;9.38;;;;;;;27.14;58.96;101348.31;5075584;28;20043;-78
2022/06/17 09:18:04;;;;;;;9.40;8.50;;;;;;;27.15;59.05;101347.31;5075763;28;20048;-78
2022/06/17 09:20:42;;;;;;;9.15;7.75;;;;;;;27.14;59.15;101352.91;5075556;28;20067;-79
2022/06/17 09:23:16;;;;;;;9.82;8.93;;;;;;;27.15;58.63;101350.03;5090920;28;20044;-79
2022/06/17 09:25:47;;;;;;;10.65;8.77;;;;;;;27.17;58.91;101345.25;5074310;28;20052;-80
2022/06/17 09:28:32;;;;;;;8.85;8.02;;;;;;;27.17;58.75;101342.53;5075237;28;20147;-80
2022/06/17 09:31:05;;;;;;;8.45;7.50;;;;;;;27.17;59.04;101342.53;5075956;28;20049;-78
2022/06/17 09:33:36;;;;;;;;;;;;;;;27.18;59.11;101343.38;5076041;28;20083;-78
2022/06/17 09:36:12;;;;;;;9.30;8.35;;;;;;;27.17;59.29;101338.97;5074901;28;19924;-78
2022/06/17 09:38:58;;;;;;;8.95;7.35;;;;;;;27.18;59.06;101346.94;5074958;28;20171;-79
2022/06/17 09:41:40;;;;;;;8.40;7.05;;;;;;;27.20;59.35;101342.22;5074953;28;20048;-79
2022/06/17 09:44:13;;;;;;;8.57;7.70;;;;;;;27.21;59.19;101348.50;5075033;28;20041;-80
2022/06/17 09:46:50;;;;;;;8.40;7.60;;;;;;;27.22;59.17;101342.03;5073615;28;20504;-79
2022/06/17 09:49:20;;;;;;;8.02;7.25;;;;;;;27.21;59.42;101338.47;5075251;28;20051;-79
2022/06/17 09:52:06;;;;;;;8.73;7.95;;;;;;;27.21;59.27;101348.50;5074606;28;20063;-78
2022/06/17 09:54:43;;;;;;;8.05;7.25;;;;;;;27.20;59.47;101354.97;5074904;28;20052;-78
2022/06/17 09:57:22;;;;;;;9.40;7.45;;;;;;;27.19;59.59;101339.69;5075007;28;20399;-79
2022/06/17 10:00:09;;;;;;;9.00;8.15;;;;;;;27.19;59.63;101345.13;5075181;28;20063;-79
2022/06/17 10:03:00;;;;;;;8.52;7.65;;;;;;;27.18;59.31;101343.38;5073016;28;20053;-79
2022/06/17 10:05:39;;;;;;;8.18;7.40;;;;;;;27.17;59.66;101344.41;5090230;28;20502;-78
2022/06/17 10:08:19;;;;;;;7.93;7.07;;;;;;;27.16;59.91;101342.72;5074425;28;20063;-79
2022/06/17 10:11:17;;;;;;;7.40;6.63;;;;;;;27.16;59.69;101346.28;5075143;28;20064;-78
2022/06/17 10:14:03;;;;;;;8.02;6.95;;;;;;;27.16;59.75;101343.56;5074602;28;20055;-78
2022/06/17 10:20:03;;;;;;;7.35;6.65;;;;;;;27.17;59.68;101347.13;5074249;28;20055;-78
2022/06/17 10:22:57;;;;;;;7.40;6.13;;;;;;;27.16;59.68;101337.28;5089983;28;20067;-79
2022/06/17 10:26:03;;;;;;;7.40;6.70;;;;;;;27.17;59.71;101333.56;5074261;28;20037;-77
2022/06/17 10:28:39;;;;;;;7.53;6.82;;;;;;;27.17;60.00;101333.56;5072131;28;20071;-79
2022/06/17 10:31:30;;;;;;;7.95;7.13;;;;;;;27.17;60.09;101347.13;5055977;28;20048;-79
2022/06/17 10:34:03;;;;;;;7.00;6.40;;;;;;;27.17;60.07;101337.13;5072226;28;20068;-79
2022/06/17 10:36:38;;;;;;;7.10;6.40;;;;;;;27.18;60.04;101340.66;5071896;28;20098;-79
2022/06/17 10:39:10;;;;;;;6.95;6.35;;;;;;;27.17;59.98;101337.13;5072071;28;20127;-79
2022/06/17 10:41:38;;;;;;;6.85;6.22;;;;;;;27.17;60.06;101333.56;5071907;28;20550;-79
2022/06/17 10:44:09;;;;;;;7.80;6.68;;;;;;;27.18;59.93;101332.53;5071592;28;20378;-79
2022/06/17 10:46:40;;;;;;;7.05;6.38;;;;;;;27.17;60.11;101323.53;5071176;28;20097;-79
2022/06/17 10:49:23;;;;;;;7.95;6.60;;;;;;;27.18;60.00;101327.94;5071759;28;20515;-80
2022/06/17 10:51:53;;;;;;;7.72;7.00;;;;;;;27.18;59.86;101324.38;5071257;28;20455;-79
2022/06/17 10:54:25;;;;;;;7.30;6.65;;;;;;;27.18;60.25;101327.94;5055018;28;20052;-79
2022/06/17 10:57:05;;;;;;;7.35;6.65;;;;;;;27.19;60.38;101317.94;5071496;28;20052;-79
2022/06/17 10:59:42;;;;;;;8.00;7.22;;;;;;;27.18;60.47;101313.50;5072667;28;20059;-78
2022/06/17 11:02:39;;;;;;;7.35;6.60;;;;;;;27.18;60.49;101317.06;5073172;28;20049;-80
2022/06/17 11:05:07;;;;;;;6.63;6.13;;;;;;;27.18;60.42;101313.50;5073029;28;20490;-79
2022/06/17 11:07:36;;;;;;;6.57;6.07;;;;;;;27.19;60.11;101310.63;5073718;28;20044;-79
2022/06/17 11:10:18;;;;;;;7.35;6.60;;;;;;;27.20;60.56;101306.88;5073200;28;20044;-79
2022/06/17 11:13:01;;;;;;;7.45;6.82;;;;;;;27.21;60.18;101310.44;5073157;28;20049;-79
2022/06/17 11:15:32;;;;;;;7.25;6.55;;;;;;;27.21;60.33;101310.44;5071288;28;20044;-79
2022/06/17 11:18:22;;;;;;;7.00;6.30;;;;;;;27.21;60.26;101310.44;5072546;28;20049;-79
2022/06/17 11:21:19;;;;;;;6.70;6.10;;;;;;;27.21;60.24;101310.44;5072737;28;20053;-78
2022/06/17 11:23:51;;;;;;;7.22;6.40;;;;;;;27.22;60.27;101314.84;5073246;28;20055;-80
2022/06/17 11:26:27;;;;;;;6.82;6.20;;;;;;;27.22;60.18;101310.25;5072819;28;20488;-79
2022/06/17 11:28:58;;;;;;;6.88;6.28;;;;;;;27.23;60.11;101308.41;5072859;28;20051;-79
2022/06/17 11:31:26;;;;;;;7.03;6.33;;;;;;;27.22;60.42;101302.09;5072664;28;20045;-79
2022/06/17 11:33:53;;;;;;;6.90;5.85;;;;;;;27.23;60.13;101308.41;5072438;28;20044;-80
2022/06/17 11:36:36;;;;;;;6.88;6.07;;;;;;;27.24;60.19;101299.22;5072062;28;20055;-79
2022/06/17 11:39:37;;;;;;;6.95;6.25;;;;;;;27.25;60.36;101303.63;5073434;28;20407;-79
2022/06/17 11:42:16;;;;;;;7.13;6.50;;;;;;;27.25;60.05;101295.47;5061341;28;20065;-78
2022/06/17 11:45:00;;;;;;;6.78;6.18;;;;;;;27.25;59.93;101300.91;5073029;28;20048;-78
2022/06/17 11:47:32;;;;;;;7.05;6.32;;;;;;;27.25;60.31;101293.59;5072929;28;20056;-79
2022/06/17 11:50:13;;;;;;;7.93;6.85;;;;;;;27.25;60.05;101290.88;5071886;28;20095;-78
2022/06/17 11:52:42;;;;;;;6.97;6.38;;;;;;;27.27;60.18;101293.44;5071932;28;20048;-78
2022/06/17 11:55:11;;;;;;;6.65;6.05;;;;;;;27.26;59.92;101298.00;5072878;28;20049;-78
2022/06/17 11:57:59;;;;;;;6.70;6.18;;;;;;;27.26;60.13;101294.44;5075171;28;20048;-78
2022/06/17 12:00:49;;;;;;;7.38;6.78;;;;;;;27.27;60.02;101288.03;5076944;28;20071;-78
2022/06/17 12:03:40;;;;;;;6.63;5.97;;;;;;;27.27;60.12;101290.72;5077003;28;20418;-78
2022/06/17 12:06:21;;;;;;;6.95;6.35;;;;;;;27.27;60.49;101286.16;5076776;28;20040;-79
2022/06/17 12:09:11;;;;;;;6.88;6.30;;;;;;;27.29;60.60;101280.53;5076740;28;20404;-78
2022/06/17 12:11:52;;;;;;;6.53;5.93;;;;;;;27.28;60.67;101276.13;5076972;28;20515;-79
2022/06/17 12:14:43;;;;;;;7.25;6.55;;;;;;;27.29;60.65;101273.22;5076674;28;20476;-79